Aérodrome :
LOGIN :

S'inscrire | Disclaimer

   EN    FR    IT 

 










Légende :    VFR   VFR Marginal   IFR   IFR Intensif   IFR Très Intensif
Visi : 
Plafond : 
>= 8 km
>= 3000ft
5 à 8 km
1000 à 3000 ft
1500m à 5 km
500 à 1000 ft
800 à 1500m
200 à 500 ft
< 800m
< 200 ft
Symboles :   Orages  Brouillard  Fortes neiges  Fortes précipitations  Vent > 20 kt
SIGMETs :   Divers  Orages  Givrage  Turbulence  Onde Orograph.  Cendres Volcan.






- Altitude de l'aérodrome : 648 ft
- Code IATA : INI


LYNI - Nis Constantine

DERNIER METAR :
  • 130200Z 35003KT 310V080 9999 FEW027 13/11 Q1021 NOSIG

METARs EXPIRÉS :
  • 130130Z VRB02KT 9999 FEW027 14/11 Q1021 NOSIG
  • 130100Z VRB02KT 9999 FEW027 13/11 Q1021 NOSIG
  • 130030Z 34004KT 310V010 9999 FEW020 14/11 Q1021 NOSIG
  • 130000Z VRB02KT 9999 FEW020 14/11 Q1021 NOSIG
  • 122330Z 10003KT 060V130 9999 FEW020 15/12 Q1021 NOSIG

TAF TAF LYNI
Valide du 13 à 00h jusqu'au 14 à 00h UTC


122300Z 1300/1324 33005KT 9999 BKN030 TX24/1314Z TN13/1303Z
TEMPO 1308/1316 32015KT



MET'MAP, la Météo Aéronautique d'un coup d'oeil ! - Copyright ORBIFLY Décembre 2007 - Disclaimer

ORBIFLY MET'MAP TEAM :

Programmation & Développement : Alexandra Zaïnal
Sur une idée originale de : Baudouin d'Aumeries
Assistance à la programmation : Marc-Olivier Méhu
Soutien technique & logistique : Manuel Goepfert

Contact : metmap@orbifly.com




SOURCES & CREDITS :

   NOAA